sensor_id;sensor_type;location;lat;lon;timestamp;temperature;humidity
21944;DHT22;11136;48.778;9.126;2022-09-21T00:02:24;10.20;99.90
21944;DHT22;11136;48.778;9.126;2022-09-21T00:04:50;10.10;99.90
21944;DHT22;11136;48.778;9.126;2022-09-21T00:07:15;10.10;99.90
21944;DHT22;11136;48.778;9.126;2022-09-21T00:09:41;10.10;99.90
21944;DHT22;11136;48.778;9.126;2022-09-21T00:12:06;10.10;99.90
21944;DHT22;11136;48.778;9.126;2022-09-21T00:14:33;10.20;99.90
21944;DHT22;11136;48.778;9.126;2022-09-21T00:16:59;10.00;99.90
21944;DHT22;11136;48.778;9.126;2022-09-21T00:19:24;10.00;99.90
21944;DHT22;11136;48.778;9.126;2022-09-21T00:21:53;10.00;99.90
21944;DHT22;11136;48.778;9.126;2022-09-21T00:24:19;10.00;99.90
21944;DHT22;11136;48.778;9.126;2022-09-21T00:26:44;10.00;99.90
21944;DHT22;11136;48.778;9.126;2022-09-21T00:29:10;9.90;99.90
21944;DHT22;11136;48.778;9.126;2022-09-21T00:31:35;9.90;99.90
21944;DHT22;11136;48.778;9.126;2022-09-21T00:34:02;9.90;99.90
21944;DHT22;11136;48.778;9.126;2022-09-21T00:36:27;9.90;99.90
21944;DHT22;11136;48.778;9.126;2022-09-21T00:38:56;9.90;99.90
21944;DHT22;11136;48.778;9.126;2022-09-21T00:41:24;9.80;99.90
21944;DHT22;11136;48.778;9.126;2022-09-21T00:44:28;9.80;99.90
21944;DHT22;11136;48.778;9.126;2022-09-21T00:46:57;9.80;99.90
21944;DHT22;11136;48.778;9.126;2022-09-21T00:49:26;9.80;99.90
21944;DHT22;11136;48.778;9.126;2022-09-21T00:51:53;9.80;99.90
21944;DHT22;11136;48.778;9.126;2022-09-21T00:54:25;9.70;99.90
21944;DHT22;11136;48.778;9.126;2022-09-21T00:56:53;9.70;99.90
21944;DHT22;11136;48.778;9.126;2022-09-21T00:59:19;9.70;99.90
21944;DHT22;11136;48.778;9.126;2022-09-21T01:01:46;9.60;99.90
21944;DHT22;11136;48.778;9.126;2022-09-21T01:04:12;9.60;99.90
21944;DHT22;11136;48.778;9.126;2022-09-21T01:06:39;9.60;99.90
21944;DHT22;11136;48.778;9.126;2022-09-21T01:09:05;9.60;99.90
21944;DHT22;11136;48.778;9.126;2022-09-21T01:11:49;9.60;99.90
21944;DHT22;11136;48.778;9.126;2022-09-21T01:14:22;9.60;99.90
21944;DHT22;11136;48.778;9.126;2022-09-21T01:17:15;9.60;99.90
21944;DHT22;11136;48.778;9.126;2022-09-21T01:22:29;9.60;99.90
21944;DHT22;11136;48.778;9.126;2022-09-21T01:30:24;9.70;99.90
21944;DHT22;11136;48.778;9.126;2022-09-21T01:33:08;9.40;99.90
21944;DHT22;11136;48.778;9.126;2022-09-21T01:35:45;9.40;99.90
21944;DHT22;11136;48.778;9.126;2022-09-21T01:38:18;9.40;99.90
21944;DHT22;11136;48.778;9.126;2022-09-21T01:40:51;9.40;99.90
21944;DHT22;11136;48.778;9.126;2022-09-21T01:43:22;9.40;99.90
21944;DHT22;11136;48.778;9.126;2022-09-21T01:45:51;9.30;99.90
21944;DHT22;11136;48.778;9.126;2022-09-21T01:48:19;9.50;99.90
21944;DHT22;11136;48.778;9.126;2022-09-21T01:50:51;9.30;99.90
21944;DHT22;11136;48.778;9.126;2022-09-21T01:53:29;9.30;99.90
21944;DHT22;11136;48.778;9.126;2022-09-21T01:55:58;9.20;99.90
21944;DHT22;11136;48.778;9.126;2022-09-21T01:58:38;9.20;99.90
21944;DHT22;11136;48.778;9.126;2022-09-21T02:01:09;9.20;99.90
21944;DHT22;11136;48.778;9.126;2022-09-21T02:06:12;9.20;99.90
21944;DHT22;11136;48.778;9.126;2022-09-21T02:08:38;9.10;99.90
21944;DHT22;11136;48.778;9.126;2022-09-21T02:11:05;9.10;99.90
21944;DHT22;11136;48.778;9.126;2022-09-21T02:13:34;9.10;99.90
21944;DHT22;11136;48.778;9.126;2022-09-21T02:19:02;9.10;99.90
21944;DHT22;11136;48.778;9.126;2022-09-21T02:21:43;9.10;99.90
21944;DHT22;11136;48.778;9.126;2022-09-21T02:24:37;9.00;99.90
21944;DHT22;11136;48.778;9.126;2022-09-21T02:30:13;9.00;99.90
21944;DHT22;11136;48.778;9.126;2022-09-21T02:33:09;9.00;99.90
21944;DHT22;11136;48.778;9.126;2022-09-21T02:36:04;8.90;99.90
21944;DHT22;11136;48.778;9.126;2022-09-21T02:38:43;8.90;99.90
21944;DHT22;11136;48.778;9.126;2022-09-21T02:41:16;8.90;99.90
21944;DHT22;11136;48.778;9.126;2022-09-21T02:46:18;8.80;99.90
21944;DHT22;11136;48.778;9.126;2022-09-21T02:48:58;8.80;99.90
21944;DHT22;11136;48.778;9.126;2022-09-21T02:51:30;8.80;99.90
21944;DHT22;11136;48.778;9.126;2022-09-21T02:53:59;8.80;99.90
21944;DHT22;11136;48.778;9.126;2022-09-21T02:56:27;8.80;99.90
21944;DHT22;11136;48.778;9.126;2022-09-21T02:58:55;8.80;99.90
21944;DHT22;11136;48.778;9.126;2022-09-21T03:01:22;8.70;99.90
21944;DHT22;11136;48.778;9.126;2022-09-21T03:03:49;8.70;99.90
21944;DHT22;11136;48.778;9.126;2022-09-21T03:06:15;8.70;99.90
21944;DHT22;11136;48.778;9.126;2022-09-21T03:08:40;8.70;99.90
21944;DHT22;11136;48.778;9.126;2022-09-21T03:11:06;8.70;99.90
21944;DHT22;11136;48.778;9.126;2022-09-21T03:13:32;8.60;99.90
21944;DHT22;11136;48.778;9.126;2022-09-21T03:16:00;8.60;99.90
21944;DHT22;11136;48.778;9.126;2022-09-21T03:18:26;8.60;99.90
21944;DHT22;11136;48.778;9.126;2022-09-21T03:20:51;8.60;99.90
21944;DHT22;11136;48.778;9.126;2022-09-21T03:23:17;8.60;99.90
21944;DHT22;11136;48.778;9.126;2022-09-21T03:25:43;8.60;99.90
21944;DHT22;11136;48.778;9.126;2022-09-21T03:28:10;8.60;99.90
21944;DHT22;11136;48.778;9.126;2022-09-21T03:30:37;8.60;99.90
21944;DHT22;11136;48.778;9.126;2022-09-21T03:33:03;8.50;99.90
21944;DHT22;11136;48.778;9.126;2022-09-21T03:35:31;8.50;99.90
21944;DHT22;11136;48.778;9.126;2022-09-21T03:37:58;8.50;99.90
21944;DHT22;11136;48.778;9.126;2022-09-21T03:40:24;8.50;99.90
21944;DHT22;11136;48.778;9.126;2022-09-21T03:42:52;8.50;99.90
21944;DHT22;11136;48.778;9.126;2022-09-21T03:45:18;8.60;99.90
21944;DHT22;11136;48.778;9.126;2022-09-21T03:47:46;8.40;99.90
21944;DHT22;11136;48.778;9.126;2022-09-21T03:50:13;8.40;99.90
21944;DHT22;11136;48.778;9.126;2022-09-21T03:52:39;8.40;99.90
21944;DHT22;11136;48.778;9.126;2022-09-21T03:55:06;8.40;99.90
21944;DHT22;11136;48.778;9.126;2022-09-21T03:57:33;8.40;99.90
21944;DHT22;11136;48.778;9.126;2022-09-21T03:59:59;8.40;99.90
21944;DHT22;11136;48.778;9.126;2022-09-21T04:02:25;8.40;99.90
21944;DHT22;11136;48.778;9.126;2022-09-21T04:04:51;8.30;99.90
21944;DHT22;11136;48.778;9.126;2022-09-21T04:07:17;8.30;99.90
21944;DHT22;11136;48.778;9.126;2022-09-21T04:09:42;8.30;99.90
21944;DHT22;11136;48.778;9.126;2022-09-21T04:12:08;8.30;99.90
21944;DHT22;11136;48.778;9.126;2022-09-21T04:14:33;8.30;99.90
21944;DHT22;11136;48.778;9.126;2022-09-21T04:16:59;8.30;99.90
21944;DHT22;11136;48.778;9.126;2022-09-21T04:19:24;8.30;99.90
21944;DHT22;11136;48.778;9.126;2022-09-21T04:21:50;8.20;99.90
21944;DHT22;11136;48.778;9.126;2022-09-21T04:24:16;8.20;99.90
21944;DHT22;11136;48.778;9.126;2022-09-21T04:26:44;8.20;99.90
21944;DHT22;11136;48.778;9.126;2022-09-21T04:29:14;8.20;99.90
21944;DHT22;11136;48.778;9.126;2022-09-21T04:31:40;8.20;99.90
21944;DHT22;11136;48.778;9.126;2022-09-21T04:34:06;8.20;99.90
21944;DHT22;11136;48.778;9.126;2022-09-21T04:36:33;8.20;99.90
21944;DHT22;11136;48.778;9.126;2022-09-21T04:39:03;8.20;99.90
21944;DHT22;11136;48.778;9.126;2022-09-21T04:41:28;8.10;99.90
21944;DHT22;11136;48.778;9.126;2022-09-21T04:43:54;8.10;99.90
21944;DHT22;11136;48.778;9.126;2022-09-21T04:46:20;8.10;99.90
21944;DHT22;11136;48.778;9.126;2022-09-21T04:48:46;8.10;99.90
21944;DHT22;11136;48.778;9.126;2022-09-21T04:51:14;8.10;99.90
21944;DHT22;11136;48.778;9.126;2022-09-21T04:53:40;8.10;99.90
21944;DHT22;11136;48.778;9.126;2022-09-21T04:56:08;8.10;99.90
21944;DHT22;11136;48.778;9.126;2022-09-21T04:58:34;8.00;99.90
21944;DHT22;11136;48.778;9.126;2022-09-21T05:01:00;8.00;99.90
21944;DHT22;11136;48.778;9.126;2022-09-21T05:03:26;8.00;99.90
21944;DHT22;11136;48.778;9.126;2022-09-21T05:05:54;8.00;99.90
21944;DHT22;11136;48.778;9.126;2022-09-21T05:08:21;8.00;99.90
21944;DHT22;11136;48.778;9.126;2022-09-21T05:11:09;8.20;99.90
21944;DHT22;11136;48.778;9.126;2022-09-21T05:13:38;8.00;99.90
21944;DHT22;11136;48.778;9.126;2022-09-21T05:16:04;7.90;99.90
21944;DHT22;11136;48.778;9.126;2022-09-21T05:18:29;7.90;99.90
21944;DHT22;11136;48.778;9.126;2022-09-21T05:20:55;7.90;99.90
21944;DHT22;11136;48.778;9.126;2022-09-21T05:23:22;7.90;99.90
21944;DHT22;11136;48.778;9.126;2022-09-21T05:25:48;8.00;99.90
21944;DHT22;11136;48.778;9.126;2022-09-21T05:28:16;8.00;99.90
21944;DHT22;11136;48.778;9.126;2022-09-21T05:30:43;8.00;99.90
21944;DHT22;11136;48.778;9.126;2022-09-21T05:33:13;8.00;99.90
21944;DHT22;11136;48.778;9.126;2022-09-21T05:35:42;7.90;99.90
21944;DHT22;11136;48.778;9.126;2022-09-21T05:38:17;7.90;99.90
21944;DHT22;11136;48.778;9.126;2022-09-21T05:40:44;7.90;99.90
21944;DHT22;11136;48.778;9.126;2022-09-21T05:43:12;8.00;99.90
21944;DHT22;11136;48.778;9.126;2022-09-21T05:45:45;8.00;99.90
21944;DHT22;11136;48.778;9.126;2022-09-21T05:48:23;7.90;99.90
21944;DHT22;11136;48.778;9.126;2022-09-21T05:50:55;8.00;99.90
21944;DHT22;11136;48.778;9.126;2022-09-21T05:56:30;8.00;99.90
21944;DHT22;11136;48.778;9.126;2022-09-21T06:04:44;8.10;99.90
21944;DHT22;11136;48.778;9.126;2022-09-21T06:07:11;8.10;99.90
21944;DHT22;11136;48.778;9.126;2022-09-21T06:09:37;8.10;99.90
21944;DHT22;11136;48.778;9.126;2022-09-21T06:12:02;8.10;99.90
21944;DHT22;11136;48.778;9.126;2022-09-21T06:14:28;8.20;99.90
21944;DHT22;11136;48.778;9.126;2022-09-21T06:16:54;8.20;99.90
21944;DHT22;11136;48.778;9.126;2022-09-21T06:19:19;8.20;99.90
21944;DHT22;11136;48.778;9.126;2022-09-21T06:21:45;8.30;99.90
21944;DHT22;11136;48.778;9.126;2022-09-21T06:24:11;8.30;99.90
21944;DHT22;11136;48.778;9.126;2022-09-21T06:26:36;8.40;99.90
21944;DHT22;11136;48.778;9.126;2022-09-21T06:29:02;8.40;99.90
21944;DHT22;11136;48.778;9.126;2022-09-21T06:31:28;8.50;99.90
21944;DHT22;11136;48.778;9.126;2022-09-21T06:33:54;8.50;99.90
21944;DHT22;11136;48.778;9.126;2022-09-21T06:36:19;8.60;99.90
21944;DHT22;11136;48.778;9.126;2022-09-21T06:38:45;8.60;99.90
21944;DHT22;11136;48.778;9.126;2022-09-21T06:41:11;8.70;99.90
21944;DHT22;11136;48.778;9.126;2022-09-21T06:43:36;8.70;99.90
21944;DHT22;11136;48.778;9.126;2022-09-21T06:46:02;8.80;99.90
21944;DHT22;11136;48.778;9.126;2022-09-21T06:48:29;8.90;99.90
21944;DHT22;11136;48.778;9.126;2022-09-21T06:50:56;8.90;99.90
21944;DHT22;11136;48.778;9.126;2022-09-21T06:53:23;9.00;99.90
21944;DHT22;11136;48.778;9.126;2022-09-21T06:55:49;9.00;99.90
21944;DHT22;11136;48.778;9.126;2022-09-21T06:58:14;9.10;99.90
21944;DHT22;11136;48.778;9.126;2022-09-21T07:00:40;9.20;99.90
21944;DHT22;11136;48.778;9.126;2022-09-21T07:03:05;9.40;99.90
21944;DHT22;11136;48.778;9.126;2022-09-21T07:05:34;9.20;99.90
21944;DHT22;11136;48.778;9.126;2022-09-21T07:08:00;9.30;99.90
21944;DHT22;11136;48.778;9.126;2022-09-21T07:10:26;9.40;99.90
21944;DHT22;11136;48.778;9.126;2022-09-21T07:12:51;9.50;99.90
21944;DHT22;11136;48.778;9.126;2022-09-21T07:15:17;9.80;99.90
21944;DHT22;11136;48.778;9.126;2022-09-21T07:17:43;9.60;99.90
21944;DHT22;11136;48.778;9.126;2022-09-21T07:20:09;9.70;99.90
21944;DHT22;11136;48.778;9.126;2022-09-21T07:22:36;9.80;99.90
21944;DHT22;11136;48.778;9.126;2022-09-21T07:25:03;9.90;99.90
21944;DHT22;11136;48.778;9.126;2022-09-21T07:27:30;10.00;99.90
21944;DHT22;11136;48.778;9.126;2022-09-21T07:29:56;10.20;99.90
21944;DHT22;11136;48.778;9.126;2022-09-21T07:32:22;10.50;99.90
21944;DHT22;11136;48.778;9.126;2022-09-21T07:34:49;10.80;99.90
21944;DHT22;11136;48.778;9.126;2022-09-21T07:37:14;11.20;99.90
21944;DHT22;11136;48.778;9.126;2022-09-21T07:39:40;11.60;99.90
21944;DHT22;11136;48.778;9.126;2022-09-21T07:42:06;12.10;99.90
21944;DHT22;11136;48.778;9.126;2022-09-21T07:44:31;12.50;99.90
21944;DHT22;11136;48.778;9.126;2022-09-21T07:46:58;12.80;99.90
21944;DHT22;11136;48.778;9.126;2022-09-21T07:49:24;13.10;99.90
21944;DHT22;11136;48.778;9.126;2022-09-21T07:51:50;13.20;99.90
21944;DHT22;11136;48.778;9.126;2022-09-21T07:54:15;13.30;99.90
21944;DHT22;11136;48.778;9.126;2022-09-21T07:56:41;13.30;99.90
21944;DHT22;11136;48.778;9.126;2022-09-21T07:59:26;13.30;99.90
21944;DHT22;11136;48.778;9.126;2022-09-21T08:01:52;13.10;99.90
21944;DHT22;11136;48.778;9.126;2022-09-21T08:04:18;13.00;99.90
21944;DHT22;11136;48.778;9.126;2022-09-21T08:06:43;12.90;99.90
21944;DHT22;11136;48.778;9.126;2022-09-21T08:09:09;12.90;99.90
21944;DHT22;11136;48.778;9.126;2022-09-21T08:11:34;12.80;99.90
21944;DHT22;11136;48.778;9.126;2022-09-21T08:14:02;12.70;99.90
21944;DHT22;11136;48.778;9.126;2022-09-21T08:16:29;12.70;99.90
21944;DHT22;11136;48.778;9.126;2022-09-21T08:18:55;12.70;99.90
21944;DHT22;11136;48.778;9.126;2022-09-21T08:21:21;12.70;99.90
21944;DHT22;11136;48.778;9.126;2022-09-21T08:23:48;12.90;99.90
21944;DHT22;11136;48.778;9.126;2022-09-21T08:26:15;13.10;99.90
21944;DHT22;11136;48.778;9.126;2022-09-21T08:28:44;13.40;99.90
21944;DHT22;11136;48.778;9.126;2022-09-21T08:31:13;13.80;99.90
21944;DHT22;11136;48.778;9.126;2022-09-21T08:33:39;14.30;99.90
21944;DHT22;11136;48.778;9.126;2022-09-21T08:36:04;14.70;99.90
21944;DHT22;11136;48.778;9.126;2022-09-21T08:38:35;15.20;99.90
21944;DHT22;11136;48.778;9.126;2022-09-21T08:41:12;15.50;99.90
21944;DHT22;11136;48.778;9.126;2022-09-21T08:43:41;15.90;99.90
21944;DHT22;11136;48.778;9.126;2022-09-21T08:46:31;16.20;99.90
21944;DHT22;11136;48.778;9.126;2022-09-21T08:49:06;16.50;99.90
21944;DHT22;11136;48.778;9.126;2022-09-21T08:51:36;16.70;99.90
21944;DHT22;11136;48.778;9.126;2022-09-21T08:54:15;16.90;99.90
21944;DHT22;11136;48.778;9.126;2022-09-21T08:56:43;17.20;99.90
21944;DHT22;11136;48.778;9.126;2022-09-21T08:59:12;17.30;99.90
21944;DHT22;11136;48.778;9.126;2022-09-21T09:02:02;17.40;99.90
21944;DHT22;11136;48.778;9.126;2022-09-21T09:04:44;17.50;99.70
21944;DHT22;11136;48.778;9.126;2022-09-21T09:07:35;17.60;99.40
21944;DHT22;11136;48.778;9.126;2022-09-21T09:10:31;17.70;99.00
21944;DHT22;11136;48.778;9.126;2022-09-21T09:13:08;17.90;98.80
21944;DHT22;11136;48.778;9.126;2022-09-21T09:18:08;18.10;96.30
21944;DHT22;11136;48.778;9.126;2022-09-21T09:20:42;18.00;95.90
21944;DHT22;11136;48.778;9.126;2022-09-21T09:25:47;18.00;95.70
21944;DHT22;11136;48.778;9.126;2022-09-21T09:30:59;18.00;94.40
21944;DHT22;11136;48.778;9.126;2022-09-21T09:36:10;17.90;93.70
21944;DHT22;11136;48.778;9.126;2022-09-21T09:38:49;17.90;93.90
21944;DHT22;11136;48.778;9.126;2022-09-21T09:41:27;17.90;93.80
21944;DHT22;11136;48.778;9.126;2022-09-21T09:52:13;18.00;93.40
21944;DHT22;11136;48.778;9.126;2022-09-21T09:54:40;18.00;93.20
21944;DHT22;11136;48.778;9.126;2022-09-21T09:57:06;18.10;93.40
21944;DHT22;11136;48.778;9.126;2022-09-21T09:59:34;18.10;92.70
21944;DHT22;11136;48.778;9.126;2022-09-21T10:02:07;18.20;92.30
21944;DHT22;11136;48.778;9.126;2022-09-21T10:04:56;18.20;91.70
21944;DHT22;11136;48.778;9.126;2022-09-21T10:07:43;18.20;91.40
21944;DHT22;11136;48.778;9.126;2022-09-21T10:15:31;18.20;90.70
21944;DHT22;11136;48.778;9.126;2022-09-21T10:18:34;18.10;90.80
21944;DHT22;11136;48.778;9.126;2022-09-21T10:21:00;18.10;90.70
21944;DHT22;11136;48.778;9.126;2022-09-21T10:23:29;18.10;90.80
21944;DHT22;11136;48.778;9.126;2022-09-21T10:25:59;18.10;90.30
21944;DHT22;11136;48.778;9.126;2022-09-21T10:28:26;18.10;90.00
21944;DHT22;11136;48.778;9.126;2022-09-21T10:31:17;18.10;90.00
21944;DHT22;11136;48.778;9.126;2022-09-21T10:36:49;18.10;88.50
21944;DHT22;11136;48.778;9.126;2022-09-21T10:41:48;18.00;88.40
21944;DHT22;11136;48.778;9.126;2022-09-21T10:44:16;17.90;88.70
21944;DHT22;11136;48.778;9.126;2022-09-21T10:46:43;17.90;88.70
21944;DHT22;11136;48.778;9.126;2022-09-21T10:49:18;18.00;88.40
21944;DHT22;11136;48.778;9.126;2022-09-21T10:51:45;18.00;88.20
21944;DHT22;11136;48.778;9.126;2022-09-21T10:56:54;18.10;87.70
21944;DHT22;11136;48.778;9.126;2022-09-21T10:59:27;18.20;86.90
21944;DHT22;11136;48.778;9.126;2022-09-21T11:01:56;18.20;86.00
21944;DHT22;11136;48.778;9.126;2022-09-21T11:05:03;18.20;85.30
21944;DHT22;11136;48.778;9.126;2022-09-21T11:07:37;18.20;86.00
21944;DHT22;11136;48.778;9.126;2022-09-21T11:13:26;18.30;84.40
21944;DHT22;11136;48.778;9.126;2022-09-21T11:16:18;18.50;84.50
21944;DHT22;11136;48.778;9.126;2022-09-21T11:24:39;18.60;82.00
21944;DHT22;11136;48.778;9.126;2022-09-21T11:27:19;18.70;82.00
21944;DHT22;11136;48.778;9.126;2022-09-21T11:30:14;18.80;83.80
21944;DHT22;11136;48.778;9.126;2022-09-21T11:32:54;18.90;84.50
21944;DHT22;11136;48.778;9.126;2022-09-21T11:36:02;19.10;84.40
21944;DHT22;11136;48.778;9.126;2022-09-21T11:44:44;19.20;83.50
21944;DHT22;11136;48.778;9.126;2022-09-21T11:50:08;19.40;83.10
21944;DHT22;11136;48.778;9.126;2022-09-21T12:07:21;19.50;81.30
21944;DHT22;11136;48.778;9.126;2022-09-21T12:16:01;19.70;80.20
21944;DHT22;11136;48.778;9.126;2022-09-21T12:18:37;19.70;79.00
21944;DHT22;11136;48.778;9.126;2022-09-21T12:21:15;19.80;77.90
21944;DHT22;11136;48.778;9.126;2022-09-21T12:24:00;19.90;77.60
21944;DHT22;11136;48.778;9.126;2022-09-21T12:26:33;20.00;77.90
21944;DHT22;11136;48.778;9.126;2022-09-21T12:29:06;20.20;77.30
21944;DHT22;11136;48.778;9.126;2022-09-21T12:34:21;20.30;75.60
21944;DHT22;11136;48.778;9.126;2022-09-21T12:36:58;20.20;75.40
21944;DHT22;11136;48.778;9.126;2022-09-21T12:39:34;20.20;74.50
21944;DHT22;11136;48.778;9.126;2022-09-21T12:44:51;20.00;73.90
21944;DHT22;11136;48.778;9.126;2022-09-21T12:47:31;20.10;74.60
21944;DHT22;11136;48.778;9.126;2022-09-21T12:50:05;20.10;74.40
21944;DHT22;11136;48.778;9.126;2022-09-21T12:52:32;20.20;74.20
21944;DHT22;11136;48.778;9.126;2022-09-21T13:00:30;20.50;73.10
21944;DHT22;11136;48.778;9.126;2022-09-21T13:03:25;20.70;72.20
21944;DHT22;11136;48.778;9.126;2022-09-21T13:08:39;21.20;70.10
21944;DHT22;11136;48.778;9.126;2022-09-21T13:11:07;21.20;69.40
21944;DHT22;11136;48.778;9.126;2022-09-21T13:13:53;21.10;68.20
21944;DHT22;11136;48.778;9.126;2022-09-21T13:16:32;21.00;67.50
21944;DHT22;11136;48.778;9.126;2022-09-21T13:19:04;20.90;67.30
21944;DHT22;11136;48.778;9.126;2022-09-21T13:21:39;20.70;67.40
21944;DHT22;11136;48.778;9.126;2022-09-21T13:24:06;20.60;66.90
21944;DHT22;11136;48.778;9.126;2022-09-21T13:26:53;20.70;69.00
21944;DHT22;11136;48.778;9.126;2022-09-21T13:31:56;23.00;70.40
21944;DHT22;11136;48.778;9.126;2022-09-21T13:34:43;24.60;66.90
21944;DHT22;11136;48.778;9.126;2022-09-21T13:45:01;28.80;57.30
21944;DHT22;11136;48.778;9.126;2022-09-21T13:47:39;29.90;55.90
21944;DHT22;11136;48.778;9.126;2022-09-21T13:50:44;31.10;52.50
21944;DHT22;11136;48.778;9.126;2022-09-21T13:53:27;32.00;48.90
21944;DHT22;11136;48.778;9.126;2022-09-21T13:55:59;32.60;47.00
21944;DHT22;11136;48.778;9.126;2022-09-21T13:58:44;33.00;46.30
21944;DHT22;11136;48.778;9.126;2022-09-21T14:01:16;33.30;45.00
21944;DHT22;11136;48.778;9.126;2022-09-21T14:04:19;33.60;43.70
21944;DHT22;11136;48.778;9.126;2022-09-21T14:06:45;33.60;43.40
21944;DHT22;11136;48.778;9.126;2022-09-21T14:09:28;33.70;43.60
21944;DHT22;11136;48.778;9.126;2022-09-21T14:12:02;33.60;42.20
21944;DHT22;11136;48.778;9.126;2022-09-21T14:14:33;33.70;41.30
21944;DHT22;11136;48.778;9.126;2022-09-21T14:17:05;33.80;41.10
21944;DHT22;11136;48.778;9.126;2022-09-21T14:24:46;34.40;40.50
21944;DHT22;11136;48.778;9.126;2022-09-21T14:27:40;34.20;39.40
21944;DHT22;11136;48.778;9.126;2022-09-21T14:30:24;34.00;39.20
21944;DHT22;11136;48.778;9.126;2022-09-21T14:33:14;33.80;39.10
21944;DHT22;11136;48.778;9.126;2022-09-21T14:35:43;33.80;38.70
21944;DHT22;11136;48.778;9.126;2022-09-21T14:38:37;33.60;39.10
21944;DHT22;11136;48.778;9.126;2022-09-21T14:41:06;33.40;39.20
21944;DHT22;11136;48.778;9.126;2022-09-21T14:43:34;33.20;38.60
21944;DHT22;11136;48.778;9.126;2022-09-21T14:54:41;31.00;39.10
21944;DHT22;11136;48.778;9.126;2022-09-21T14:57:38;30.70;39.90
21944;DHT22;11136;48.778;9.126;2022-09-21T15:00:20;30.50;39.90
21944;DHT22;11136;48.778;9.126;2022-09-21T15:05:45;30.10;39.60
21944;DHT22;11136;48.778;9.126;2022-09-21T15:11:35;29.60;39.90
21944;DHT22;11136;48.778;9.126;2022-09-21T15:14:27;29.00;39.80
21944;DHT22;11136;48.778;9.126;2022-09-21T15:16:57;28.40;40.50
21944;DHT22;11136;48.778;9.126;2022-09-21T15:19:26;27.80;40.90
21944;DHT22;11136;48.778;9.126;2022-09-21T15:21:54;27.30;41.30
21944;DHT22;11136;48.778;9.126;2022-09-21T15:24:27;26.70;41.90
21944;DHT22;11136;48.778;9.126;2022-09-21T15:29:29;25.80;42.40
21944;DHT22;11136;48.778;9.126;2022-09-21T15:31:55;25.30;42.50
21944;DHT22;11136;48.778;9.126;2022-09-21T15:34:22;24.90;43.10
21944;DHT22;11136;48.778;9.126;2022-09-21T15:36:48;24.40;43.80
21944;DHT22;11136;48.778;9.126;2022-09-21T15:39:28;24.10;44.40
21944;DHT22;11136;48.778;9.126;2022-09-21T15:42:15;23.80;44.80
21944;DHT22;11136;48.778;9.126;2022-09-21T15:44:43;23.50;45.50
21944;DHT22;11136;48.778;9.126;2022-09-21T15:47:13;23.20;46.00
21944;DHT22;11136;48.778;9.126;2022-09-21T15:49:41;23.00;46.30
21944;DHT22;11136;48.778;9.126;2022-09-21T15:52:34;22.80;46.50
21944;DHT22;11136;48.778;9.126;2022-09-21T15:55:13;22.70;46.90
21944;DHT22;11136;48.778;9.126;2022-09-21T15:57:42;22.50;47.20
21944;DHT22;11136;48.778;9.126;2022-09-21T16:00:17;22.30;47.00
21944;DHT22;11136;48.778;9.126;2022-09-21T16:02:53;22.20;46.50
21944;DHT22;11136;48.778;9.126;2022-09-21T16:05:21;22.30;46.70
21944;DHT22;11136;48.778;9.126;2022-09-21T16:07:48;22.00;46.90
21944;DHT22;11136;48.778;9.126;2022-09-21T16:13:11;21.70;47.00
21944;DHT22;11136;48.778;9.126;2022-09-21T16:16:07;21.50;47.30
21944;DHT22;11136;48.778;9.126;2022-09-21T16:21:14;21.30;48.10
21944;DHT22;11136;48.778;9.126;2022-09-21T16:23:40;21.20;48.40
21944;DHT22;11136;48.778;9.126;2022-09-21T16:26:15;21.10;48.60
21944;DHT22;11136;48.778;9.126;2022-09-21T16:28:42;21.10;48.80
21944;DHT22;11136;48.778;9.126;2022-09-21T16:31:26;21.00;49.00
21944;DHT22;11136;48.778;9.126;2022-09-21T16:38:47;20.70;49.60
21944;DHT22;11136;48.778;9.126;2022-09-21T16:41:14;20.70;50.00
21944;DHT22;11136;48.778;9.126;2022-09-21T16:43:40;20.70;50.30
21944;DHT22;11136;48.778;9.126;2022-09-21T16:46:11;20.70;50.60
21944;DHT22;11136;48.778;9.126;2022-09-21T16:48:38;20.50;50.80
21944;DHT22;11136;48.778;9.126;2022-09-21T16:51:09;20.40;51.10
21944;DHT22;11136;48.778;9.126;2022-09-21T16:53:36;20.40;51.40
21944;DHT22;11136;48.778;9.126;2022-09-21T16:56:02;20.30;51.80
21944;DHT22;11136;48.778;9.126;2022-09-21T16:58:28;20.20;52.10
21944;DHT22;11136;48.778;9.126;2022-09-21T17:00:53;20.20;52.50
21944;DHT22;11136;48.778;9.126;2022-09-21T17:03:19;20.10;52.80
21944;DHT22;11136;48.778;9.126;2022-09-21T17:05:45;20.00;52.90
21944;DHT22;11136;48.778;9.126;2022-09-21T17:08:11;20.00;53.20
21944;DHT22;11136;48.778;9.126;2022-09-21T17:10:40;19.90;53.40
21944;DHT22;11136;48.778;9.126;2022-09-21T17:13:09;19.80;53.50
21944;DHT22;11136;48.778;9.126;2022-09-21T17:15:38;19.80;53.90
21944;DHT22;11136;48.778;9.126;2022-09-21T17:18:05;19.70;54.30
21944;DHT22;11136;48.778;9.126;2022-09-21T17:20:42;19.70;54.70
21944;DHT22;11136;48.778;9.126;2022-09-21T17:23:09;19.60;54.90
21944;DHT22;11136;48.778;9.126;2022-09-21T17:25:35;19.60;54.90
21944;DHT22;11136;48.778;9.126;2022-09-21T17:28:05;19.50;55.20
21944;DHT22;11136;48.778;9.126;2022-09-21T17:30:34;19.40;55.50
21944;DHT22;11136;48.778;9.126;2022-09-21T17:33:00;19.30;55.80
21944;DHT22;11136;48.778;9.126;2022-09-21T17:35:37;19.30;56.30
21944;DHT22;11136;48.778;9.126;2022-09-21T17:38:03;19.20;57.20
21944;DHT22;11136;48.778;9.126;2022-09-21T17:40:29;19.10;57.80
21944;DHT22;11136;48.778;9.126;2022-09-21T17:43:02;18.90;58.30
21944;DHT22;11136;48.778;9.126;2022-09-21T17:45:39;18.80;58.90
21944;DHT22;11136;48.778;9.126;2022-09-21T17:48:12;18.70;59.10
21944;DHT22;11136;48.778;9.126;2022-09-21T17:50:41;18.60;59.60
21944;DHT22;11136;48.778;9.126;2022-09-21T17:53:08;18.40;59.80
21944;DHT22;11136;48.778;9.126;2022-09-21T17:55:58;18.30;60.40
21944;DHT22;11136;48.778;9.126;2022-09-21T17:58:43;18.10;60.90
21944;DHT22;11136;48.778;9.126;2022-09-21T18:01:39;18.00;61.50
21944;DHT22;11136;48.778;9.126;2022-09-21T18:04:06;17.90;61.80
21944;DHT22;11136;48.778;9.126;2022-09-21T18:06:35;17.80;61.90
21944;DHT22;11136;48.778;9.126;2022-09-21T18:09:01;17.60;62.40
21944;DHT22;11136;48.778;9.126;2022-09-21T18:22:58;17.10;64.50
21944;DHT22;11136;48.778;9.126;2022-09-21T18:25:36;16.90;64.60
21944;DHT22;11136;48.778;9.126;2022-09-21T18:28:20;16.90;65.30
21944;DHT22;11136;48.778;9.126;2022-09-21T18:30:55;16.70;65.50
21944;DHT22;11136;48.778;9.126;2022-09-21T18:33:41;16.70;66.00
21944;DHT22;11136;48.778;9.126;2022-09-21T18:36:35;16.70;66.10
21944;DHT22;11136;48.778;9.126;2022-09-21T18:44:58;16.40;67.20
21944;DHT22;11136;48.778;9.126;2022-09-21T18:47:48;16.30;67.60
21944;DHT22;11136;48.778;9.126;2022-09-21T18:50:37;16.20;68.00
21944;DHT22;11136;48.778;9.126;2022-09-21T18:53:25;16.10;68.30
21944;DHT22;11136;48.778;9.126;2022-09-21T18:55:53;16.10;68.70
21944;DHT22;11136;48.778;9.126;2022-09-21T18:58:19;16.00;68.70
21944;DHT22;11136;48.778;9.126;2022-09-21T19:00:45;15.90;69.00